sensor_id;sensor_type;location;lat;lon;timestamp;P1;durP1;ratioP1;P2;durP2;ratioP2
22705;SDS011;11520;51.198;4.468;2023-04-15T14:12:00;6.82;;;2.25;;
22705;SDS011;11520;51.198;4.468;2023-04-15T14:14:26;4.85;;;2.35;;
22705;SDS011;11520;51.198;4.468;2023-04-15T14:16:52;3.15;;;1.65;;
22705;SDS011;11520;51.198;4.468;2023-04-15T14:19:18;3.25;;;1.70;;
22705;SDS011;11520;51.198;4.468;2023-04-15T14:21:44;3.38;;;1.50;;
22705;SDS011;11520;51.198;4.468;2023-04-15T14:24:09;2.58;;;1.50;;
22705;SDS011;11520;51.198;4.468;2023-04-15T14:26:35;2.47;;;1.80;;
22705;SDS011;11520;51.198;4.468;2023-04-15T14:29:00;3.03;;;2.17;;
22705;SDS011;11520;51.198;4.468;2023-04-15T14:31:26;3.70;;;2.30;;
22705;SDS011;11520;51.198;4.468;2023-04-15T14:33:51;5.07;;;3.03;;
22705;SDS011;11520;51.198;4.468;2023-04-15T14:36:17;5.55;;;2.30;;
22705;SDS011;11520;51.198;4.468;2023-04-15T14:38:42;4.90;;;2.30;;
22705;SDS011;11520;51.198;4.468;2023-04-15T14:41:08;5.13;;;2.95;;
22705;SDS011;11520;51.198;4.468;2023-04-15T14:43:34;2.55;;;2.17;;
22705;SDS011;11520;51.198;4.468;2023-04-15T14:46:00;3.25;;;2.30;;
22705;SDS011;11520;51.198;4.468;2023-04-15T14:48:26;4.35;;;2.20;;
22705;SDS011;11520;51.198;4.468;2023-04-15T14:50:51;3.05;;;2.20;;
22705;SDS011;11520;51.198;4.468;2023-04-15T14:53:17;3.92;;;1.77;;
22705;SDS011;11520;51.198;4.468;2023-04-15T14:55:43;6.95;;;2.05;;
22705;SDS011;11520;51.198;4.468;2023-04-15T14:58:09;6.63;;;1.60;;
22705;SDS011;11520;51.198;4.468;2023-04-15T15:00:35;2.55;;;1.20;;
22705;SDS011;11520;51.198;4.468;2023-04-15T15:03:04;4.05;;;2.03;;
22705;SDS011;11520;51.198;4.468;2023-04-15T15:05:36;6.05;;;1.67;;
22705;SDS011;11520;51.198;4.468;2023-04-15T15:08:11;2.03;;;1.50;;
22705;SDS011;11520;51.198;4.468;2023-04-15T15:10:38;3.20;;;1.88;;
22705;SDS011;11520;51.198;4.468;2023-04-15T15:13:08;7.60;;;1.92;;
22705;SDS011;11520;51.198;4.468;2023-04-15T15:15:34;2.45;;;1.50;;
22705;SDS011;11520;51.198;4.468;2023-04-15T15:18:00;2.17;;;1.48;;
22705;SDS011;11520;51.198;4.468;2023-04-15T15:20:26;4.97;;;1.50;;
22705;SDS011;11520;51.198;4.468;2023-04-15T15:22:53;3.38;;;1.73;;
22705;SDS011;11520;51.198;4.468;2023-04-15T15:25:18;5.15;;;1.23;;
22705;SDS011;11520;51.198;4.468;2023-04-15T15:27:44;2.58;;;1.50;;
22705;SDS011;11520;51.198;4.468;2023-04-15T15:30:10;2.97;;;1.20;;
22705;SDS011;11520;51.198;4.468;2023-04-15T15:32:40;3.33;;;1.45;;
22705;SDS011;11520;51.198;4.468;2023-04-15T15:35:06;5.22;;;1.40;;
22705;SDS011;11520;51.198;4.468;2023-04-15T15:37:32;7.28;;;2.47;;
22705;SDS011;11520;51.198;4.468;2023-04-15T15:39:57;2.00;;;1.40;;
22705;SDS011;11520;51.198;4.468;2023-04-15T15:42:24;4.72;;;1.55;;
22705;SDS011;11520;51.198;4.468;2023-04-15T15:44:50;2.65;;;1.35;;
22705;SDS011;11520;51.198;4.468;2023-04-15T15:47:17;4.03;;;1.40;;
22705;SDS011;11520;51.198;4.468;2023-04-15T15:49:43;2.90;;;1.00;;
22705;SDS011;11520;51.198;4.468;2023-04-15T15:52:09;2.55;;;1.00;;
22705;SDS011;11520;51.198;4.468;2023-04-15T15:54:35;1.80;;;1.40;;
22705;SDS011;11520;51.198;4.468;2023-04-15T15:57:01;2.33;;;1.58;;
22705;SDS011;11520;51.198;4.468;2023-04-15T15:59:27;2.65;;;1.10;;
22705;SDS011;11520;51.198;4.468;2023-04-15T16:01:53;2.58;;;1.10;;
22705;SDS011;11520;51.198;4.468;2023-04-15T16:04:19;4.00;;;1.92;;
22705;SDS011;11520;51.198;4.468;2023-04-15T16:06:44;3.17;;;1.88;;
22705;SDS011;11520;51.198;4.468;2023-04-15T16:09:10;3.10;;;1.52;;
22705;SDS011;11520;51.198;4.468;2023-04-15T16:11:36;4.78;;;2.00;;
22705;SDS011;11520;51.198;4.468;2023-04-15T16:14:02;4.50;;;1.40;;
22705;SDS011;11520;51.198;4.468;2023-04-15T16:16:28;4.25;;;1.55;;
22705;SDS011;11520;51.198;4.468;2023-04-15T16:18:54;4.63;;;1.35;;
22705;SDS011;11520;51.198;4.468;2023-04-15T16:21:21;2.30;;;1.40;;
22705;SDS011;11520;51.198;4.468;2023-04-15T16:23:48;8.00;;;1.17;;
22705;SDS011;11520;51.198;4.468;2023-04-15T16:26:14;5.00;;;1.10;;
22705;SDS011;11520;51.198;4.468;2023-04-15T16:28:40;4.72;;;1.33;;
22705;SDS011;11520;51.198;4.468;2023-04-15T16:31:05;4.90;;;2.47;;
22705;SDS011;11520;51.198;4.468;2023-04-15T16:33:31;7.65;;;1.70;;
22705;SDS011;11520;51.198;4.468;2023-04-15T16:35:56;3.70;;;1.40;;
22705;SDS011;11520;51.198;4.468;2023-04-15T16:38:22;4.00;;;1.45;;
22705;SDS011;11520;51.198;4.468;2023-04-15T16:40:48;4.20;;;1.50;;
22705;SDS011;11520;51.198;4.468;2023-04-15T16:43:13;7.38;;;1.80;;
22705;SDS011;11520;51.198;4.468;2023-04-15T16:45:39;3.97;;;1.60;;
22705;SDS011;11520;51.198;4.468;2023-04-15T16:48:05;4.38;;;1.58;;
22705;SDS011;11520;51.198;4.468;2023-04-15T16:50:30;3.53;;;1.67;;
22705;SDS011;11520;51.198;4.468;2023-04-15T16:52:56;7.40;;;1.40;;
22705;SDS011;11520;51.198;4.468;2023-04-15T16:55:22;3.15;;;1.23;;
22705;SDS011;11520;51.198;4.468;2023-04-15T16:57:47;6.78;;;1.95;;
22705;SDS011;11520;51.198;4.468;2023-04-15T17:00:13;4.15;;;1.60;;
22705;SDS011;11520;51.198;4.468;2023-04-15T17:02:39;3.47;;;1.50;;
22705;SDS011;11520;51.198;4.468;2023-04-15T17:05:05;4.38;;;1.80;;
22705;SDS011;11520;51.198;4.468;2023-04-15T17:07:31;6.30;;;1.98;;
22705;SDS011;11520;51.198;4.468;2023-04-15T17:09:57;3.88;;;1.75;;
22705;SDS011;11520;51.198;4.468;2023-04-15T17:12:23;7.03;;;1.67;;
22705;SDS011;11520;51.198;4.468;2023-04-15T17:14:48;6.90;;;1.98;;
22705;SDS011;11520;51.198;4.468;2023-04-15T17:17:14;8.98;;;2.50;;
22705;SDS011;11520;51.198;4.468;2023-04-15T17:19:40;7.35;;;2.42;;
22705;SDS011;11520;51.198;4.468;2023-04-15T17:22:06;4.93;;;2.00;;
22705;SDS011;11520;51.198;4.468;2023-04-15T17:24:31;7.15;;;3.20;;
22705;SDS011;11520;51.198;4.468;2023-04-15T17:26:57;11.82;;;3.35;;
22705;SDS011;11520;51.198;4.468;2023-04-15T17:29:23;9.48;;;3.33;;
22705;SDS011;11520;51.198;4.468;2023-04-15T17:31:49;6.97;;;3.15;;
22705;SDS011;11520;51.198;4.468;2023-04-15T17:34:14;12.50;;;3.85;;
22705;SDS011;11520;51.198;4.468;2023-04-15T17:36:40;9.95;;;4.13;;
22705;SDS011;11520;51.198;4.468;2023-04-15T17:39:06;13.93;;;3.05;;
22705;SDS011;11520;51.198;4.468;2023-04-15T17:41:31;6.00;;;3.08;;
22705;SDS011;11520;51.198;4.468;2023-04-15T17:43:57;9.57;;;3.10;;
22705;SDS011;11520;51.198;4.468;2023-04-15T17:46:23;6.63;;;2.97;;
22705;SDS011;11520;51.198;4.468;2023-04-15T17:48:48;7.30;;;2.67;;
22705;SDS011;11520;51.198;4.468;2023-04-15T17:51:18;7.18;;;2.45;;
22705;SDS011;11520;51.198;4.468;2023-04-15T17:53:44;9.57;;;2.60;;
22705;SDS011;11520;51.198;4.468;2023-04-15T17:56:10;6.03;;;2.45;;
22705;SDS011;11520;51.198;4.468;2023-04-15T17:58:35;9.23;;;2.75;;
22705;SDS011;11520;51.198;4.468;2023-04-15T18:01:03;6.43;;;2.50;;
22705;SDS011;11520;51.198;4.468;2023-04-15T18:03:29;8.25;;;2.78;;
22705;SDS011;11520;51.198;4.468;2023-04-15T18:05:54;6.15;;;2.67;;
22705;SDS011;11520;51.198;4.468;2023-04-15T18:08:20;4.85;;;1.98;;
22705;SDS011;11520;51.198;4.468;2023-04-15T18:10:47;7.30;;;2.35;;
22705;SDS011;11520;51.198;4.468;2023-04-15T18:13:12;4.00;;;2.47;;
22705;SDS011;11520;51.198;4.468;2023-04-15T18:15:38;6.88;;;2.50;;
22705;SDS011;11520;51.198;4.468;2023-04-15T18:18:04;8.88;;;2.08;;
22705;SDS011;11520;51.198;4.468;2023-04-15T18:20:30;9.95;;;3.30;;
22705;SDS011;11520;51.198;4.468;2023-04-15T18:22:57;7.07;;;2.65;;
22705;SDS011;11520;51.198;4.468;2023-04-15T18:25:24;4.97;;;2.25;;
22705;SDS011;11520;51.198;4.468;2023-04-15T18:27:50;6.10;;;2.92;;
22705;SDS011;11520;51.198;4.468;2023-04-15T18:30:15;10.45;;;2.80;;
22705;SDS011;11520;51.198;4.468;2023-04-15T18:32:42;7.03;;;2.80;;
22705;SDS011;11520;51.198;4.468;2023-04-15T18:35:07;7.05;;;3.00;;
22705;SDS011;11520;51.198;4.468;2023-04-15T18:37:33;7.18;;;2.65;;
22705;SDS011;11520;51.198;4.468;2023-04-15T18:39:59;9.45;;;2.85;;
22705;SDS011;11520;51.198;4.468;2023-04-15T18:42:25;6.28;;;2.72;;
22705;SDS011;11520;51.198;4.468;2023-04-15T18:44:51;9.90;;;3.45;;
22705;SDS011;11520;51.198;4.468;2023-04-15T18:47:17;10.80;;;3.63;;
22705;SDS011;11520;51.198;4.468;2023-04-15T18:49:42;9.18;;;3.25;;
22705;SDS011;11520;51.198;4.468;2023-04-15T18:52:08;7.65;;;3.60;;
22705;SDS011;11520;51.198;4.468;2023-04-15T18:54:35;9.35;;;3.33;;
22705;SDS011;11520;51.198;4.468;2023-04-15T18:57:01;7.05;;;3.10;;
22705;SDS011;11520;51.198;4.468;2023-04-15T18:59:28;11.35;;;3.78;;
22705;SDS011;11520;51.198;4.468;2023-04-15T19:01:59;10.77;;;3.97;;
22705;SDS011;11520;51.198;4.468;2023-04-15T19:04:25;10.65;;;3.40;;
22705;SDS011;11520;51.198;4.468;2023-04-15T19:06:54;8.30;;;3.13;;
22705;SDS011;11520;51.198;4.468;2023-04-15T19:09:19;10.10;;;3.60;;
22705;SDS011;11520;51.198;4.468;2023-04-15T19:11:45;8.30;;;3.50;;
22705;SDS011;11520;51.198;4.468;2023-04-15T19:14:11;8.25;;;3.17;;
22705;SDS011;11520;51.198;4.468;2023-04-15T19:16:37;8.80;;;3.47;;
22705;SDS011;11520;51.198;4.468;2023-04-15T19:19:02;7.88;;;3.45;;
22705;SDS011;11520;51.198;4.468;2023-04-15T19:21:28;11.32;;;3.65;;
